MUHG/HOG METAR and TAF weather

Enter ICAO airport designator
Station Type Date Time Source
MUHG METAR 2019/10/14 04:50 UTC NOAA

MUHG 140450Z 05006KT 9999 SCT025 25/24 Q1015


Station Type Date Time Source
MUHG Decoded METAR 2019/10/14 04:50 UTC NOAA

Holguin Civ / Mil , Cuba (MUHG) 20-47N 076-19W
Oct 14, 2019 - 12:50 AM EDT / 2019.10.14 0450 UTC
Wind: from the NE (050 degrees) at 7 MPH (6 KT):0
Visibility: greater than 7 mile(s):0
Sky conditions: partly cloudy
Temperature: 77 F (25 C)
Dew Point: 75 F (24 C)
Relative Humidity: 94%
Pressure (altimeter): 29.97 in. Hg (1015 hPa)
ob: MUHG 140450Z 05006KT 9999 SCT025 25/24 Q1015
cycle: 5

Station Type Date Time Source
MUHG TAF 2019/10/14 06:03 UTC NOAA

TAF TAF MUHG 140500Z 1406/1506 VRB03KT 9000 SCT020
BECMG 1415/1417 06010KT
TEMPO 1418/1424 VRB10KT 5000 TSRA SCT018CB BKN020
BECMG 1501/1503 VRB03KT

Example: see airport list